Nakhon Phanom, Thailand

1:00 AM ICT on January 21, 2017 (GMT +0700)
Sakon Nakhon | | Change Station

Elev 528 ft 17.20 °N, 104.12 °E | Updated 30 minutes ago

Clear
Clear
70 °F
Feels Like 70 °F
N
6
Wind Variable Wind from SE

Today
High -- | Low -- °F
--% Chance of Precip.
Yesterday
High -- | Low -- °F
Precip. -- in
Pressure 30.04 in
Visibility -9999.0 miles
Clouds
Dew Point 63 °F
Humidity 78%
Rainfall 0.00 in
Snow Depth Not available.
6:34 AM 5:50 PM
Last Quarter, 42% visible
METAR VTUI 201730Z AUTO 13005KT 080V160 CAVOK 21/17 Q1017 A3006
Pressure 30.04 in
Visibility -9999.0 miles
Clouds
Dew Point 63 °F
Humidity 78%
Rainfall 0.00 in
Snow Depth Not available.
6:34 AM 5:50 PM
Last Quarter, 42% visible
METAR VTUI 201730Z AUTO 13005KT 080V160 CAVOK 21/17 Q1017 A3006

Get Your Daily Forecast Email!

Thanks for signing up!

Be on the lookout for a verification email in your inbox.

You'll start receiving the daily forecast at 8 AM.

×

10-Day Weather Forecast

No radar image for this location.
×

Almanac

Astronomy

Jan. 21, 2017 Rise Set
Actual Time
Civil Twilight
Nautical Twilight
Astronomical Twilight
Moon
Length of Visible Light
Length of Day
Tomorrow will be .
, % of the Moon is Illuminated

Today's Extremes

Country Highs Country Lows

Community

WunderPhotos

Upload Photos

1,962,540 photos uploaded!

WunderBlog® & News

Nearby

Air Quality

  Air Quality AQ Index Pollutant
Not available.

Snow Depth

Station Depth Elevation

Earthquake Activity

City Distance Mag. Time & Date
Minimum magnitude displayed is 2.5.

Coastal Water Temperatures

Place Temperature

Stations

Nearby Weather Stations

Station Location Temp. Windchill Dew Point Humidity Wind Precip. Elev Updated Type